KHST/HST METAR and TAF weather

Enter ICAO airport designator
Station Type Date Time Source
KHST METAR 2021/04/18 01:56 UTC NOAA

KHST 180156Z AUTO 00000KT 10SM CLR 23/20 A2990 RMK AO2 SLP128 T02300199


Station Type Date Time Source
KHST Decoded METAR 2021/04/18 01:56 UTC NOAA

Homestead Air Force Base, FL, United States (KHST) 25-29N 080-23W
Apr 17, 2021 - 09:56 PM EDT / 2021.04.18 0156 UTC
Wind: Calm:0
Visibility: 10 mile(s):0
Sky conditions: clear
Temperature: 73.4 F (23.0 C)
Dew Point: 67.8 F (19.9 C)
Relative Humidity: 82%
Pressure (altimeter): 29.9 in. Hg (1012 hPa)
ob: KHST 180156Z AUTO 00000KT 10SM CLR 23/20 A2990 RMK AO2 SLP128 T02300199
cycle: 2

Station Type Date Time Source
KHST TAF 2021/04/17 19:19 UTC NOAA

TAF KHST 171900Z 1719/1901 21012G18KT 9999 FEW040 FEW200 QNH2985INS
BECMG 1723/1724 VRB05KT 9999 FEW040 SCT200 QNH2988INS
TEMPO 1810/1813 00000KT 4800 BCFG
BECMG 1813/1814 21012KT 9999 SCT030 QNH2994INS
BECMG 1823/1824 VRB05KT 9999 BKN025 BKN200 QNH2989INS TX32/1719Z TN20/1811Z

Example: see airport list